Ciney, Belgium
Current Conditions -  °F | °C
As of 5:55 AM on Saturday 22 Nov 2014 (Local Time) from EBFS Reporting Station
Haze Haze  
Wind Chill: 36°   Ceiling: 200
Heat Index: 41°   Visibility: 1.2mi
Dew Point: 41°   Wind: 7mph
Humidity: 100%   Direction: 130°SE
Pressure: 30"   Gusts: NA
Location:  50.29°N, 5.1°E
Report Text: EBFS 220455Z 13006KT 2000 BR BKN002 05/05 Q1016 AMB
Loading
Personal Weather Stations






























Interactive Weather Map New forecast layout! Learn more

10-Day Weather Forecast

Advertisements
Track Severe Weather on mobile